Time;durP1;ratioP1;P1;durP2;ratioP2;P2;SDS_P1;SDS_P2;PMS_P1;PMS_P2;Temp;Humidity;BMP_temperature;BMP_pressure;BME280_temperature;BME280_humidity;BME280_pressure;Samples;Min_cycle;Max_cycle;Signal;HPM_P1;HPM_P2
2022/05/27 00:02:11;;;;;;;25.98;20.05;;;18.90;81.00;;;;;;5076102;28;20029;-12
2022/05/27 00:04:37;;;;;;;25.00;18.13;;;18.90;81.10;;;;;;5074348;28;20082;-12
2022/05/27 00:07:04;;;;;;;25.35;18.08;;;18.80;81.20;;;;;;5076046;28;20024;-13
2022/05/27 00:09:30;;;;;;;27.77;20.33;;;18.80;81.10;;;;;;5075710;28;20032;-13
2022/05/27 00:11:56;;;;;;;21.88;15.05;;;18.80;81.20;;;;;;5074781;28;20537;-12
2022/05/27 00:14:23;;;;;;;31.80;19.35;;;18.70;81.30;;;;;;5076046;28;20035;-11
2022/05/27 00:16:49;;;;;;;25.98;17.42;;;18.70;81.40;;;;;;5075530;28;20044;-13
2022/05/27 00:19:16;;;;;;;25.42;17.52;;;18.60;81.40;;;;;;5075591;28;20020;-12
2022/05/27 00:21:43;;;;;;;28.50;18.77;;;18.60;81.40;;;;;;5075770;28;20032;-12
2022/05/27 00:24:08;;;;;;;26.27;18.45;;;18.60;81.60;;;;;;5075465;28;20084;-12
2022/05/27 00:26:34;;;;;;;24.90;17.70;;;18.50;81.50;;;;;;5075183;28;20052;-13
2022/05/27 00:29:00;;;;;;;27.63;19.58;;;18.50;81.70;;;;;;5074672;28;20033;-12
2022/05/27 00:31:26;;;;;;;30.75;20.70;;;18.50;81.80;;;;;;5075475;28;20025;-12
2022/05/27 00:33:52;;;;;;;30.40;21.38;;;18.40;81.90;;;;;;5075094;28;20516;-13
2022/05/27 00:36:18;;;;;;;25.45;18.55;;;18.40;82.10;;;;;;5075317;28;20071;-12
2022/05/27 00:38:44;;;;;;;22.58;16.33;;;18.40;82.00;;;;;;5075151;28;20468;-13
2022/05/27 00:41:11;;;;;;;29.52;19.67;;;18.40;82.00;;;;;;5073846;28;20024;-12
2022/05/27 00:43:39;;;;;;;30.60;21.25;;;18.40;82.40;;;;;;5075696;28;20051;-12
2022/05/27 00:46:13;;;;;;;28.92;19.25;;;18.40;82.50;;;;;;5075093;28;20025;-12
2022/05/27 00:48:40;;;;;;;26.60;19.33;;;18.40;82.40;;;;;;5074885;28;20031;-12
2022/05/27 00:51:17;;;;;;;32.78;21.17;;;18.40;82.40;;;;;;5075535;28;20037;-12
2022/05/27 00:53:53;;;;;;;28.92;19.05;;;18.40;82.50;;;;;;5073650;28;20082;-12
2022/05/27 00:56:22;;;;;;;24.13;16.92;;;18.30;82.50;;;;;;5074907;28;20036;-12
2022/05/27 00:58:52;;;;;;;25.77;17.95;;;18.40;82.30;;;;;;5075300;28;20071;-11
2022/05/27 01:01:18;;;;;;;24.60;17.13;;;18.30;82.30;;;;;;5074657;28;20029;-12
2022/05/27 01:03:46;;;;;;;31.95;21.58;;;18.30;82.30;;;;;;5074836;28;20021;-12
2022/05/27 01:06:12;;;;;;;26.77;20.08;;;18.30;82.50;;;;;;5074599;28;20060;-11
2022/05/27 01:08:39;;;;;;;30.33;18.50;;;18.20;82.60;;;;;;5074564;28;20024;-12
2022/05/27 01:11:16;;;;;;;27.05;19.60;;;18.20;82.60;;;;;;5074502;28;20452;-12
2022/05/27 01:13:57;;;;;;;25.70;18.90;;;18.10;82.60;;;;;;5074366;28;20387;-12
2022/05/27 01:16:48;;;;;;;26.70;17.98;;;18.10;82.60;;;;;;5074063;28;20124;-13
2022/05/27 01:22:45;;;;;;;22.63;15.80;;;18.00;82.90;;;;;;5074410;28;20111;-11
2022/05/27 01:25:32;;;;;;;27.65;17.60;;;18.00;82.70;;;;;;5074559;28;20025;-11
2022/05/27 01:28:34;;;;;;;21.60;17.00;;;18.00;82.70;;;;;;5074189;28;20495;-12
2022/05/27 01:31:03;;;;;;;19.23;14.38;;;18.00;82.80;;;;;;5071865;28;20044;-11
2022/05/27 01:33:53;;;;;;;24.40;15.43;;;18.00;82.70;;;;;;5073405;28;20072;-12
2022/05/27 01:36:37;;;;;;;24.38;17.33;;;17.90;82.70;;;;;;5074069;28;20028;-12
2022/05/27 01:39:31;;;;;;;27.33;18.85;;;18.00;82.70;;;;;;5073926;28;20115;-13
2022/05/27 01:42:03;;;;;;;;;;;17.90;82.80;;;;;;5074619;28;20027;-13
2022/05/27 01:44:44;;;;;;;25.25;18.58;;;17.90;83.00;;;;;;5073552;28;19995;-12
2022/05/27 01:47:17;;;;;;;29.15;20.13;;;17.90;82.80;;;;;;5074003;28;20039;-12
2022/05/27 01:49:53;;;;;;;30.60;19.88;;;17.90;82.90;;;;;;5074136;28;20074;-12
2022/05/27 01:52:28;;;;;;;23.65;17.05;;;17.90;83.10;;;;;;5073766;28;20029;-13
2022/05/27 01:55:12;;;;;;;23.65;16.35;;;17.90;83.10;;;;;;5074436;28;20075;-12
2022/05/27 01:57:58;;;;;;;;;;;17.90;82.90;;;;;;5074176;28;20556;-18
2022/05/27 02:00:26;;;;;;;22.48;14.23;;;17.80;83.00;;;;;;5073077;28;19904;-12
2022/05/27 02:03:10;;;;;;;29.27;19.70;;;17.70;82.90;;;;;;5073808;28;20031;-12
2022/05/27 02:05:39;;;;;;;;;;;17.70;83.00;;;;;;5074269;28;20048;-12
2022/05/27 02:08:27;;;;;;;30.05;19.38;;;17.70;83.40;;;;;;5073426;28;19912;-11
2022/05/27 02:10:53;;;;;;;22.92;16.02;;;17.70;83.20;;;;;;5074074;28;20023;-11
2022/05/27 02:13:47;;;;;;;20.55;14.30;;;17.70;83.20;;;;;;5073592;28;20396;-12
2022/05/27 02:16:25;;;;;;;22.38;15.25;;;17.70;83.30;;;;;;5073008;28;20028;-12
2022/05/27 02:19:12;;;;;;;30.70;19.38;;;17.70;83.20;;;;;;5073033;28;20029;-12
2022/05/27 02:21:51;;;;;;;34.60;24.13;;;17.70;83.30;;;;;;5072024;28;20063;-12
2022/05/27 02:24:27;;;;;;;31.92;21.27;;;17.70;83.40;;;;;;5073362;28;20025;-13
2022/05/27 02:27:02;;;;;;;31.25;21.33;;;17.70;83.50;;;;;;5073542;28;20056;-12
2022/05/27 02:29:31;;;;;;;38.50;25.08;;;17.60;83.70;;;;;;5073484;28;20025;-13
2022/05/27 02:32:21;;;;;;;25.13;18.50;;;17.60;83.80;;;;;;5072972;28;20025;-12
2022/05/27 02:35:10;;;;;;;32.45;21.75;;;17.60;83.90;;;;;;5072023;28;20032;-12
2022/05/27 02:37:50;;;;;;;26.85;16.75;;;17.60;84.10;;;;;;5073553;28;20048;-12
2022/05/27 02:40:23;;;;;;;25.58;17.83;;;17.60;84.10;;;;;;5072849;28;20511;-13
2022/05/27 02:42:49;;;;;;;25.83;17.48;;;17.50;84.10;;;;;;5073118;28;20449;-13
2022/05/27 02:45:44;;;;;;;24.65;17.40;;;17.60;84.10;;;;;;5073093;28;20056;-12
2022/05/27 02:48:27;;;;;;;26.98;16.05;;;17.60;84.20;;;;;;5073337;28;20178;-13
2022/05/27 02:51:05;;;;;;;25.30;15.88;;;17.60;84.20;;;;;;5073082;28;20044;-13
2022/05/27 02:53:51;;;;;;;25.65;17.75;;;17.60;84.20;;;;;;5073263;28;20562;-12
2022/05/27 02:56:32;;;;;;;30.40;20.25;;;17.60;84.00;;;;;;5072216;28;20119;-12
2022/05/27 02:58:58;;;;;;;28.42;19.35;;;17.60;84.10;;;;;;5072911;28;20016;-11
2022/05/27 03:01:24;;;;;;;31.58;20.17;;;17.60;84.10;;;;;;5073071;28;20077;-11
2022/05/27 03:03:50;;;;;;;27.63;18.38;;;17.60;84.10;;;;;;5072874;28;20372;-12
2022/05/27 03:06:30;;;;;;;27.92;18.27;;;17.60;84.10;;;;;;5072910;28;20024;-11
2022/05/27 03:09:14;;;;;;;26.17;18.63;;;17.60;84.10;;;;;;5072832;28;20087;-12
2022/05/27 03:11:47;;;;;;;23.75;15.18;;;17.70;84.20;;;;;;5072723;28;20459;-12
2022/05/27 03:14:37;;;;;;;24.08;17.33;;;17.60;84.10;;;;;;5072949;28;20035;-12
2022/05/27 03:17:30;;;;;;;24.88;16.45;;;17.70;84.10;;;;;;5072754;28;20081;-12
2022/05/27 03:20:35;;;;;;;27.95;18.58;;;17.60;84.00;;;;;;5073009;28;20044;-12
2022/05/27 03:23:31;;;;;;;25.00;16.85;;;17.60;84.00;;;;;;5072394;28;20119;-13
2022/05/27 03:26:14;;;;;;;28.17;21.17;;;17.60;84.00;;;;;;5072666;28;20057;-11
2022/05/27 03:29:04;;;;;;;25.63;17.27;;;17.70;84.20;;;;;;5073133;28;20025;-11
2022/05/27 03:31:59;;;;;;;28.83;19.52;;;17.60;84.10;;;;;;5073439;28;20043;-12
2022/05/27 03:34:33;;;;;;;26.67;17.67;;;17.70;84.10;;;;;;5075794;28;20049;-11
2022/05/27 03:37:05;;;;;;;22.60;15.55;;;17.70;84.20;;;;;;5076614;28;20072;-11
2022/05/27 03:39:35;;;;;;;25.60;18.45;;;17.60;84.20;;;;;;5076537;28;20056;-11
2022/05/27 03:42:08;;;;;;;25.52;18.35;;;17.70;84.30;;;;;;5076464;28;20016;-12
2022/05/27 03:44:35;;;;;;;30.98;19.40;;;17.70;84.30;;;;;;5076203;28;20543;-11
2022/05/27 03:47:03;;;;;;;23.33;16.88;;;17.70;84.40;;;;;;5076177;28;20016;-10
2022/05/27 03:49:29;;;;;;;24.65;16.55;;;17.60;84.30;;;;;;5076717;28;20062;-11
2022/05/27 03:51:55;;;;;;;24.85;17.58;;;17.60;84.30;;;;;;5076069;28;20074;-12
2022/05/27 03:54:22;;;;;;;25.25;17.38;;;17.60;84.30;;;;;;5074447;28;20134;-12
2022/05/27 03:56:50;;;;;;;26.65;19.40;;;17.60;84.40;;;;;;5075941;28;20029;-12
2022/05/27 03:59:17;;;;;;;26.10;18.52;;;17.60;84.50;;;;;;5075886;28;20535;-12
2022/05/27 04:01:51;;;;;;;24.70;18.52;;;17.60;84.50;;;;;;5075913;28;20365;-12
2022/05/27 04:04:20;;;;;;;34.97;24.67;;;17.60;84.40;;;;;;5075617;28;20047;-13
2022/05/27 04:06:47;;;;;;;31.58;19.20;;;17.70;84.50;;;;;;5076106;28;20024;-11
2022/05/27 04:09:14;;;;;;;46.63;30.40;;;17.70;84.50;;;;;;5076187;28;20028;-12
2022/05/27 04:11:41;;;;;;;30.30;19.90;;;17.80;84.70;;;;;;5075666;28;20380;-10
2022/05/27 04:14:08;;;;;;;32.42;22.10;;;17.80;84.60;;;;;;5075591;28;20498;-12
2022/05/27 04:16:34;;;;;;;31.38;20.15;;;17.80;84.50;;;;;;5075281;28;20062;-11
2022/05/27 04:19:01;;;;;;;25.25;18.90;;;17.90;84.50;;;;;;5075832;28;20048;-12
2022/05/27 04:21:27;;;;;;;36.35;24.20;;;17.90;84.40;;;;;;5075661;28;20032;-11
2022/05/27 04:23:54;;;;;;;39.90;26.02;;;17.90;84.20;;;;;;5075620;28;20090;-11
2022/05/27 04:26:21;;;;;;;40.67;26.48;;;18.10;84.30;;;;;;5075202;28;20036;-11
2022/05/27 04:28:47;;;;;;;31.75;22.63;;;18.10;84.30;;;;;;5075367;28;20021;-13
2022/05/27 04:31:13;;;;;;;39.83;28.58;;;18.20;84.40;;;;;;5074666;28;20024;-12
2022/05/27 04:33:39;;;;;;;39.47;28.98;;;18.20;84.50;;;;;;5075102;28;20047;-12
2022/05/27 04:36:07;;;;;;;37.30;25.92;;;18.30;84.40;;;;;;5075475;28;20146;-11
2022/05/27 04:38:34;;;;;;;42.20;28.73;;;18.30;84.50;;;;;;5074994;28;20515;-12
2022/05/27 04:41:01;;;;;;;40.55;29.42;;;18.40;84.40;;;;;;5075141;28;20081;-13
2022/05/27 04:43:27;;;;;;;36.55;26.33;;;18.40;84.60;;;;;;5073442;28;20115;-12
2022/05/27 04:45:54;;;;;;;43.42;29.55;;;18.40;84.40;;;;;;5074968;28;20056;-11
2022/05/27 04:48:20;;;;;;;31.83;23.17;;;18.50;84.50;;;;;;5074868;28;20025;-10
2022/05/27 04:50:49;;;;;;;32.45;22.95;;;18.60;84.50;;;;;;5074915;28;20033;-12
2022/05/27 04:53:15;;;;;;;30.73;21.83;;;18.70;84.30;;;;;;5075111;28;20033;-12
2022/05/27 04:55:42;;;;;;;35.33;25.45;;;18.80;84.30;;;;;;5075105;28;20047;-13
2022/05/27 04:58:11;;;;;;;36.50;26.63;;;18.90;84.50;;;;;;5074758;28;20025;-12
2022/05/27 05:00:43;;;;;;;36.83;27.25;;;19.00;84.30;;;;;;5074748;28;20106;-12
2022/05/27 05:03:11;;;;;;;39.50;28.02;;;19.10;84.70;;;;;;5074689;28;20025;-11
2022/05/27 05:05:38;;;;;;;40.75;28.95;;;19.20;84.30;;;;;;5074577;28;20036;-12
2022/05/27 05:08:09;;;;;;;39.75;29.75;;;19.30;84.40;;;;;;5074906;28;20051;-12
2022/05/27 05:10:35;;;;;;;46.88;34.05;;;19.40;84.20;;;;;;5074692;28;20024;-13
2022/05/27 05:13:02;;;;;;;40.45;30.13;;;19.50;84.60;;;;;;5074409;28;20032;-13
2022/05/27 05:15:29;;;;;;;42.15;31.60;;;19.60;84.80;;;;;;5074686;28;20032;-11
2022/05/27 05:17:55;;;;;;;41.17;30.38;;;19.70;84.40;;;;;;5074616;28;20103;-12
2022/05/27 05:20:27;;;;;;;42.70;30.10;;;19.90;84.60;;;;;;5074277;28;20021;-12
2022/05/27 05:22:54;;;;;;;48.50;34.30;;;20.00;84.50;;;;;;5074677;28;20049;-12
2022/05/27 05:25:23;;;;;;;41.80;30.13;;;20.00;84.80;;;;;;5074263;28;20441;-12
2022/05/27 05:27:49;;;;;;;43.97;32.30;;;20.20;84.80;;;;;;5074763;28;20028;-11
2022/05/27 05:30:18;;;;;;;49.50;33.58;;;20.30;84.50;;;;;;5073882;28;20056;-13
2022/05/27 05:32:43;;;;;;;36.72;25.95;;;20.40;84.30;;;;;;5073861;28;20048;-13
2022/05/27 05:35:12;;;;;;;38.22;26.70;;;20.60;83.80;;;;;;5073961;28;20115;-13
2022/05/27 05:37:39;;;;;;;34.35;26.00;;;20.70;82.80;;;;;;5074073;28;20065;-11
2022/05/27 05:40:08;;;;;;;31.38;22.42;;;20.80;82.50;;;;;;5074255;28;20024;-12
2022/05/27 05:42:34;;;;;;;37.97;27.70;;;20.90;82.00;;;;;;5073771;28;20020;-12
2022/05/27 05:45:00;;;;;;;31.00;24.63;;;21.10;82.50;;;;;;5073774;28;20017;-12
2022/05/27 05:47:26;;;;;;;38.90;27.95;;;21.20;82.00;;;;;;5073833;28;20705;-12
2022/05/27 05:49:52;;;;;;;31.02;23.23;;;21.40;81.60;;;;;;5073720;28;20111;-12
2022/05/27 05:52:18;;;;;;;35.92;26.90;;;21.40;81.00;;;;;;5073446;28;20119;-12
2022/05/27 05:54:44;;;;;;;30.35;22.73;;;21.60;80.80;;;;;;5073186;28;20029;-13
2022/05/27 05:57:10;;;;;;;32.60;22.42;;;21.70;80.50;;;;;;5072367;28;20515;-12
2022/05/27 05:59:40;;;;;;;25.55;20.05;;;21.80;80.10;;;;;;5073909;28;20070;-12
2022/05/27 06:02:08;;;;;;;25.30;19.70;;;21.90;79.70;;;;;;5073583;28;20025;-11
2022/05/27 06:04:34;;;;;;;33.20;23.83;;;22.10;79.60;;;;;;5073599;28;20056;-12
2022/05/27 06:07:01;;;;;;;32.05;23.88;;;22.20;79.30;;;;;;5073781;28;20165;-12
2022/05/27 06:09:27;;;;;;;30.13;23.60;;;22.40;79.00;;;;;;5073735;28;20029;-12
2022/05/27 06:11:57;;;;;;;31.85;22.52;;;22.50;78.50;;;;;;5073722;28;20384;-12
2022/05/27 06:14:24;;;;;;;29.50;19.98;;;22.60;78.00;;;;;;5073237;28;20047;-11
2022/05/27 06:16:50;;;;;;;28.92;21.02;;;22.70;77.30;;;;;;5073611;28;20081;-13
2022/05/27 06:19:16;;;;;;;29.27;21.10;;;22.80;76.30;;;;;;5073353;28;20576;-12
2022/05/27 06:21:43;;;;;;;33.25;23.02;;;22.90;74.50;;;;;;5073602;28;20028;-12
2022/05/27 06:24:10;;;;;;;32.40;22.67;;;22.90;74.10;;;;;;5073445;28;20032;-12
2022/05/27 06:26:38;;;;;;;25.65;18.70;;;22.90;74.60;;;;;;5073113;28;20033;-12
2022/05/27 06:34:34;;;;;;;28.08;19.67;;;23.40;73.50;;;;;;5073058;28;20043;-12
2022/05/27 06:37:05;;;;;;;26.08;16.90;;;23.60;71.60;;;;;;5073365;28;20461;-12
2022/05/27 06:39:34;;;;;;;21.95;16.75;;;23.70;71.80;;;;;;5073078;28;20074;-15
2022/05/27 06:42:02;;;;;;;21.13;15.30;;;23.80;71.50;;;;;;5073055;28;20029;-12
2022/05/27 06:44:28;;;;;;;23.05;16.45;;;23.90;71.40;;;;;;5072864;28;20048;-10
2022/05/27 06:46:54;;;;;;;21.48;15.90;;;24.00;70.90;;;;;;5073039;28;20032;-11
2022/05/27 06:49:21;;;;;;;25.90;17.88;;;24.20;70.50;;;;;;5073334;28;20024;-12
2022/05/27 06:51:47;;;;;;;24.08;16.88;;;24.30;70.50;;;;;;5073592;28;20380;-11
2022/05/27 06:54:15;;;;;;;23.90;19.08;;;24.50;70.00;;;;;;5071781;28;20099;-12
2022/05/27 06:56:43;;;;;;;23.55;16.95;;;24.90;69.40;;;;;;5073251;28;20036;-11
2022/05/27 06:59:10;;;;;;;23.42;15.85;;;25.10;68.50;;;;;;5072910;28;20035;-12
2022/05/27 07:01:37;;;;;;;23.38;15.95;;;25.40;67.30;;;;;;5073060;28;20028;-12
2022/05/27 07:04:04;;;;;;;21.40;15.30;;;25.40;66.10;;;;;;5073183;28;20150;-11
2022/05/27 07:06:41;;;;;;;19.13;12.27;;;25.40;65.60;;;;;;5075056;28;20086;-13
2022/05/27 07:09:08;;;;;;;17.30;13.60;;;25.50;66.00;;;;;;5076894;28;20552;-11
2022/05/27 07:11:35;;;;;;;22.67;15.60;;;25.50;65.60;;;;;;5077047;28;20062;-11
2022/05/27 07:14:02;;;;;;;21.55;14.82;;;25.60;65.90;;;;;;5076703;28;20028;-12
2022/05/27 07:16:28;;;;;;;20.50;15.02;;;25.90;64.70;;;;;;5076524;28;20464;-11
2022/05/27 07:18:55;;;;;;;17.95;12.75;;;26.00;64.40;;;;;;5076713;28;20028;-12
2022/05/27 07:21:21;;;;;;;18.38;12.40;;;26.20;64.40;;;;;;5075848;28;20028;-13
2022/05/27 07:23:47;;;;;;;19.58;12.43;;;26.30;64.30;;;;;;5076575;28;20025;-14
2022/05/27 07:26:13;;;;;;;16.20;11.88;;;26.40;64.00;;;;;;5075337;28;20031;-12
2022/05/27 07:28:39;;;;;;;15.60;11.30;;;26.50;63.60;;;;;;5076583;28;20070;-12
2022/05/27 07:31:05;;;;;;;22.10;13.95;;;26.70;63.60;;;;;;5076687;28;20028;-12
2022/05/27 07:33:31;;;;;;;27.30;14.57;;;26.80;62.80;;;;;;5074921;28;20040;-11
2022/05/27 07:35:57;;;;;;;14.38;10.77;;;26.90;62.10;;;;;;5076644;28;20074;-12
2022/05/27 07:38:23;;;;;;;18.08;12.27;;;27.10;62.10;;;;;;5075984;28;20028;-11
2022/05/27 07:40:50;;;;;;;17.33;12.63;;;27.30;61.80;;;;;;5076582;28;20052;-11
2022/05/27 07:43:16;;;;;;;18.52;13.73;;;27.60;61.00;;;;;;5076213;28;20020;-11
2022/05/27 07:45:44;;;;;;;15.55;11.02;;;27.90;60.50;;;;;;5076074;28;20030;-12
2022/05/27 07:48:11;;;;;;;19.73;13.63;;;28.10;59.90;;;;;;5076271;28;20086;-12
2022/05/27 07:50:38;;;;;;;19.00;13.85;;;28.10;59.70;;;;;;5076172;28;20051;-12
2022/05/27 07:53:04;;;;;;;17.58;11.18;;;28.20;59.30;;;;;;5076267;28;20075;-11
2022/05/27 07:55:31;;;;;;;18.55;12.60;;;28.20;59.40;;;;;;5076358;28;20056;-11
2022/05/27 07:57:57;;;;;;;18.38;12.40;;;28.30;58.70;;;;;;5075953;28;20044;-12
2022/05/27 08:00:29;;;;;;;14.82;11.15;;;28.40;58.30;;;;;;5076297;28;20021;-12
2022/05/27 08:02:55;;;;;;;16.10;10.33;;;28.50;58.60;;;;;;5075954;28;20093;-11
2022/05/27 08:05:24;;;;;;;17.05;11.82;;;28.50;58.80;;;;;;5074972;28;20270;-12
2022/05/27 08:07:52;;;;;;;17.95;11.73;;;28.70;57.20;;;;;;5075832;28;20067;-12
2022/05/27 08:10:22;;;;;;;19.63;14.88;;;28.80;57.20;;;;;;5075839;28;20025;-11
2022/05/27 08:12:47;;;;;;;19.10;12.38;;;29.00;57.10;;;;;;5075582;28;20029;-11
2022/05/27 08:15:14;;;;;;;21.40;12.25;;;29.10;56.70;;;;;;5075819;28;20044;-12
2022/05/27 08:17:40;;;;;;;19.98;13.45;;;29.20;56.20;;;;;;5074728;28;20396;-11
2022/05/27 08:20:10;;;;;;;20.10;11.75;;;29.40;56.00;;;;;;5076202;28;20021;-12
2022/05/27 08:22:36;;;;;;;15.60;10.73;;;29.40;55.90;;;;;;5075346;28;20029;-12
2022/05/27 08:25:03;;;;;;;16.10;11.70;;;29.50;55.80;;;;;;5075798;28;20021;-12
2022/05/27 08:27:30;;;;;;;16.83;10.95;;;29.80;55.50;;;;;;5075772;28;20027;-12
2022/05/27 08:29:56;;;;;;;16.55;10.48;;;30.00;55.00;;;;;;5075587;28;20103;-12
2022/05/27 08:32:22;;;;;;;21.48;15.30;;;30.40;53.90;;;;;;5075036;28;20052;-12
2022/05/27 08:40:35;;;;;;;14.63;10.85;;;30.80;52.70;;;;;;5075361;28;20035;-11
2022/05/27 08:43:16;;;;;;;15.00;10.88;;;31.10;52.30;;;;;;5075475;28;20028;-12
2022/05/27 08:46:07;;;;;;;17.48;12.45;;;31.40;51.70;;;;;;5075110;28;20032;-11
2022/05/27 08:48:38;;;;;;;17.88;12.88;;;31.50;49.10;;;;;;5074840;28;20526;-13
2022/05/27 08:51:20;;;;;;;20.73;13.65;;;31.80;50.60;;;;;;5075344;28;20073;-12
2022/05/27 08:53:55;;;;;;;16.33;11.43;;;32.00;49.40;;;;;;5074851;28;20029;-12
2022/05/27 08:59:40;;;;;;;14.10;8.98;;;32.10;50.30;;;;;;5075357;28;20042;-11
2022/05/27 09:02:30;;;;;;;16.63;10.00;;;32.40;49.50;;;;;;5074601;28;20063;-12
2022/05/27 09:05:16;;;;;;;19.02;10.90;;;32.60;48.50;;;;;;5075012;28;20162;-12
2022/05/27 09:07:51;;;;;;;16.05;10.90;;;32.90;47.50;;;;;;5075005;28;20032;-12
2022/05/27 09:10:30;;;;;;;17.60;10.27;;;33.20;45.60;;;;;;5074912;28;20043;-13
2022/05/27 09:13:22;;;;;;;18.52;11.20;;;33.40;46.60;;;;;;5074508;28;20028;-12
2022/05/27 09:16:01;;;;;;;15.77;9.48;;;33.60;44.90;;;;;;5074686;28;20044;-12
2022/05/27 09:18:52;;;;;;;13.70;9.65;;;33.70;45.40;;;;;;5074287;28;20040;-12
2022/05/27 09:21:29;;;;;;;19.33;12.18;;;33.80;45.30;;;;;;5074372;28;20031;-12
2022/05/27 09:24:36;;;;;;;17.67;10.00;;;33.90;44.70;;;;;;5074326;28;20039;-12
2022/05/27 09:27:10;;;;;;;22.67;13.43;;;33.90;45.30;;;;;;5063399;28;20044;-11
2022/05/27 09:29:58;;;;;;;17.42;11.18;;;34.00;45.20;;;;;;5074444;28;20025;-12
2022/05/27 09:33:02;;;;;;;17.40;13.23;;;33.70;44.90;;;;;;5073750;28;20054;-13
2022/05/27 09:35:52;;;;;;;19.63;9.38;;;33.50;44.30;;;;;;5072879;28;20043;-13
2022/05/27 09:38:25;;;;;;;20.52;12.07;;;33.50;45.00;;;;;;5074112;28;20476;-13
2022/05/27 09:41:04;;;;;;;15.05;10.05;;;33.70;43.90;;;;;;5073963;28;20107;-12
2022/05/27 09:43:45;;;;;;;15.80;10.07;;;33.90;44.40;;;;;;5073968;28;20035;-12
2022/05/27 09:46:14;;;;;;;17.10;10.48;;;34.20;43.80;;;;;;5074187;28;20025;-13
2022/05/27 09:48:41;;;;;;;19.55;13.18;;;34.40;43.20;;;;;;5073783;28;20028;-13
2022/05/27 09:51:12;;;;;;;21.35;13.10;;;34.40;43.20;;;;;;5074113;28;20081;-13
2022/05/27 09:53:41;;;;;;;20.15;15.10;;;34.20;43.70;;;;;;5073728;28;20040;-11
2022/05/27 09:56:12;;;;;;;16.67;10.27;;;33.90;44.10;;;;;;5073694;28;20028;-13
2022/05/27 09:58:41;;;;;;;24.92;11.68;;;33.50;44.70;;;;;;5073451;28;20550;-12
2022/05/27 10:01:29;;;;;;;14.45;10.57;;;33.50;45.00;;;;;;5073587;28;20029;-12
2022/05/27 10:04:07;;;;;;;20.58;11.82;;;33.60;45.20;;;;;;5074024;28;20017;-12
2022/05/27 10:06:36;;;;;;;17.25;12.60;;;33.80;44.70;;;;;;5073669;28;20033;-12
2022/05/27 10:09:08;;;;;;;16.73;10.57;;;33.90;44.20;;;;;;5073829;28;20044;-12
2022/05/27 10:11:36;;;;;;;;;;;34.00;44.40;;;;;;5074277;28;20070;-11
2022/05/27 10:14:10;;;;;;;20.42;11.98;;;34.40;43.50;;;;;;5073552;28;20279;-12
2022/05/27 10:16:39;;;;;;;21.92;12.13;;;34.60;42.50;;;;;;5073185;28;20384;-12
2022/05/27 10:19:15;;;;;;;20.35;12.88;;;34.70;43.00;;;;;;5072148;28;20480;-12
2022/05/27 10:22:00;;;;;;;25.10;14.40;;;34.60;42.80;;;;;;5073312;28;20495;-12
2022/05/27 10:24:26;;;;;;;17.85;12.23;;;34.50;43.00;;;;;;5073289;28;20081;-12
2022/05/27 10:27:09;;;;;;;18.85;13.93;;;34.30;43.30;;;;;;5073280;28;20111;-12
2022/05/27 10:29:51;;;;;;;24.35;16.67;;;34.20;43.60;;;;;;5073288;28;20389;-12
2022/05/27 10:32:42;;;;;;;22.65;14.60;;;34.00;42.00;;;;;;5071587;28;20137;-12
2022/05/27 10:35:31;;;;;;;23.73;17.10;;;33.80;42.90;;;;;;5073531;28;20116;-14
2022/05/27 10:38:12;;;;;;;28.40;16.25;;;33.40;45.10;;;;;;5073180;28;20036;-14
2022/05/27 10:40:51;;;;;;;21.02;15.45;;;33.10;45.70;;;;;;5072410;28;20492;-12
2022/05/27 10:43:55;;;;;;;19.42;12.90;;;33.10;46.20;;;;;;5073321;28;20024;-12
2022/05/27 10:46:25;;;;;;;20.85;12.30;;;33.40;45.60;;;;;;5072743;28;20052;-12
2022/05/27 10:49:05;;;;;;;17.65;11.85;;;33.50;45.40;;;;;;5073287;28;20028;-12
2022/05/27 10:52:10;;;;;;;18.45;12.23;;;33.70;45.30;;;;;;5073002;28;20028;-13
2022/05/27 10:55:00;;;;;;;21.60;14.75;;;34.00;45.10;;;;;;5070739;28;20619;-13
2022/05/27 11:03:28;;;;;;;25.48;13.77;;;33.30;44.80;;;;;;5071380;28;20122;-12
2022/05/27 11:06:13;;;;;;;14.60;11.45;;;33.30;45.60;;;;;;5070875;28;20519;-13
2022/05/27 11:09:23;;;;;;;21.35;13.23;;;33.70;45.30;;;;;;5070600;28;20025;-12
2022/05/27 11:12:19;;;;;;;21.42;12.77;;;34.20;44.20;;;;;;5011161;28;20079;-12
2022/05/27 11:17:57;;;;;;;20.75;14.43;;;35.30;41.60;;;;;;5011494;28;20076;-12
2022/05/27 11:20:43;;;;;;;21.08;14.35;;;35.80;41.80;;;;;;5011445;28;20034;-11
2022/05/27 11:23:30;;;;;;;23.02;16.73;;;36.10;41.00;;;;;;5011542;28;20041;-13
2022/05/27 11:26:26;;;;;;;24.30;16.85;;;35.90;41.30;;;;;;5010916;28;20124;-11
2022/05/27 11:28:55;;;;;;;13.07;9.57;;;35.50;41.90;;;;;;5023101;28;20026;-13
2022/05/27 11:31:55;;;;;;;27.23;17.80;;;35.20;43.30;;;;;;5030561;28;20517;-13
2022/05/27 11:35:00;;;;;;;22.33;15.05;;;35.40;41.70;;;;;;5030887;28;20400;-12
2022/05/27 11:37:44;;;;;;;18.30;13.27;;;35.30;41.60;;;;;;5011037;28;20577;-13
2022/05/27 11:40:47;;;;;;;17.80;12.40;;;35.30;41.90;;;;;;5031153;28;20033;-12
2022/05/27 11:43:12;;;;;;;18.07;12.07;;;35.80;40.90;;;;;;5031021;28;20057;-13
2022/05/27 11:46:05;;;;;;;16.50;10.38;;;36.20;40.80;;;;;;5030767;28;20127;-13
2022/05/27 11:48:51;;;;;;;17.08;12.23;;;36.50;40.30;;;;;;5061703;28;20020;-12
2022/05/27 11:51:56;;;;;;;19.45;13.27;;;36.90;39.70;;;;;;5072545;28;20449;-11
2022/05/27 11:54:34;;;;;;;24.73;14.82;;;37.10;39.40;;;;;;5075630;28;20052;-13
2022/05/27 11:57:25;;;;;;;18.45;11.73;;;37.40;38.80;;;;;;5076063;28;20025;-13
2022/05/27 11:59:55;;;;;;;15.38;10.15;;;37.20;38.40;;;;;;5076306;28;20020;-12
2022/05/27 12:02:33;;;;;;;19.55;13.00;;;37.40;38.30;;;;;;5075632;28;20498;-12
2022/05/27 12:05:12;;;;;;;18.25;11.65;;;37.40;38.60;;;;;;5076138;28;20048;-12
2022/05/27 12:07:55;;;;;;;16.92;10.73;;;37.10;38.90;;;;;;5076177;28;20079;-12
2022/05/27 12:10:43;;;;;;;17.92;11.35;;;37.10;39.10;;;;;;5075633;28;20458;-12
2022/05/27 12:13:34;;;;;;;18.05;13.35;;;37.40;38.80;;;;;;5075884;28;20048;-13
2022/05/27 12:16:20;;;;;;;15.23;10.82;;;37.40;37.70;;;;;;5075654;28;20028;-14
2022/05/27 12:18:51;;;;;;;21.77;12.93;;;37.00;38.40;;;;;;5075964;28;20021;-12
2022/05/27 12:23:08;;;;;;;19.55;16.13;;;36.80;38.90;;;;;;5090125;27;20438;-13
2022/05/27 12:25:46;;;;;;;21.98;14.02;;;37.00;39.10;;;;;;5089482;28;20028;-12
2022/05/27 12:28:16;;;;;;;18.55;14.48;;;37.10;39.10;;;;;;5091786;28;20028;-12
2022/05/27 12:30:44;;;;;;;23.77;14.45;;;37.20;38.90;;;;;;5091032;28;20036;-12
2022/05/27 12:33:20;;;;;;;19.50;13.27;;;37.40;38.20;;;;;;5090502;28;20033;-13
2022/05/27 12:36:02;;;;;;;15.88;11.63;;;37.40;36.80;;;;;;5091086;28;20531;-13
2022/05/27 12:38:34;;;;;;;20.00;13.73;;;37.20;37.60;;;;;;5090553;28;20035;-13
2022/05/27 12:41:06;;;;;;;20.75;14.18;;;37.40;38.10;;;;;;5090279;28;20032;-13
2022/05/27 12:45:53;;;;;;;21.17;14.18;;;36.90;38.10;;;;;;5109161;27;20436;-13
2022/05/27 12:48:40;;;;;;;18.67;13.38;;;36.40;39.20;;;;;;5110817;28;20396;-12
2022/05/27 12:51:14;;;;;;;21.63;12.90;;;36.40;39.50;;;;;;5110917;28;20065;-13
2022/05/27 12:53:51;;;;;;;14.07;9.60;;;36.40;40.10;;;;;;5109692;28;20032;-12
2022/05/27 13:02:21;;;;;;;20.88;10.50;;;36.50;39.90;;;;;;5111016;28;20035;-12
2022/05/27 13:05:00;;;;;;;17.42;11.05;;;37.00;39.20;;;;;;5110587;28;20115;-12
2022/05/27 13:07:37;;;;;;;18.00;11.23;;;37.70;36.80;;;;;;5110935;28;20101;-12
2022/05/27 13:10:19;;;;;;;17.92;10.65;;;38.00;36.10;;;;;;5110627;28;20060;-13
2022/05/27 13:12:44;;;;;;;13.32;10.18;;;38.10;36.10;;;;;;5110821;28;20032;-13
2022/05/27 13:15:32;;;;;;;17.77;12.68;;;38.00;36.40;;;;;;5110459;28;20040;-13
2022/05/27 13:18:19;;;;;;;16.00;11.23;;;37.80;36.20;;;;;;5048034;28;20560;-13
2022/05/27 13:21:12;;;;;;;16.15;11.82;;;37.60;36.20;;;;;;5048572;28;20547;-13
2022/05/27 13:24:18;;;;;;;18.45;13.27;;;37.20;37.00;;;;;;5048277;28;20203;-14
2022/05/27 13:26:47;;;;;;;19.35;12.90;;;36.80;37.10;;;;;;5008041;28;20022;-13
2022/05/27 13:29:38;;;;;;;15.30;10.70;;;36.40;38.80;;;;;;5008125;28;20038;-13
2022/05/27 13:32:20;;;;;;;19.95;12.32;;;36.00;39.00;;;;;;5007899;28;20042;-12
2022/05/27 13:34:55;;;;;;;16.73;12.60;;;36.20;38.90;;;;;;5008700;28;20032;-11
2022/05/27 13:37:39;;;;;;;20.60;14.13;;;36.30;39.40;;;;;;5007964;28;20112;-13
2022/05/27 13:40:21;;;;;;;20.83;14.65;;;36.30;40.00;;;;;;5008532;28;20057;-12
2022/05/27 13:42:49;;;;;;;18.60;11.82;;;36.20;39.70;;;;;;5008441;28;20108;-12